Time;durP1;ratioP1;P1;durP2;ratioP2;P2;SDS_P1;SDS_P2;PMS_P1;PMS_P2;Temp;Humidity;BMP_temperature;BMP_pressure;BME280_temperature;BME280_humidity;BME280_pressure;Samples;Min_cycle;Max_cycle;Signal;HPM_P1;HPM_P2
2024/03/14 00:00:47;;;;;;;4.10;3.00;;;;;;;3.19;100.00;97786.00;1222841;75;2923463;-65
2024/03/14 00:03:20;;;;;;;4.85;2.95;;;;;;;3.17;100.00;97793.00;1224325;75;2918571;-65
2024/03/14 00:05:53;;;;;;;3.05;2.35;;;;;;;3.29;100.00;97791.59;1223865;75;2923765;-64
2024/03/14 00:08:26;;;;;;;3.35;2.10;;;;;;;3.29;100.00;97791.59;1224228;75;2925020;-64
2024/03/14 00:10:59;;;;;;;4.60;2.60;;;;;;;3.17;100.00;97787.59;1224728;75;2924804;-63
2024/03/14 00:13:33;;;;;;;6.85;4.15;;;;;;;3.19;100.00;97790.66;1223662;75;2919394;-63
2024/03/14 00:16:10;;;;;;;3.15;2.45;;;;;;;3.42;100.00;97785.06;1224521;75;2918981;-63
2024/03/14 00:18:44;;;;;;;3.70;2.50;;;;;;;3.53;100.00;97786.75;1223676;75;2929479;-63
2024/03/14 00:21:16;;;;;;;3.65;2.40;;;;;;;3.63;100.00;97778.38;1224485;75;2917268;-61
2024/03/14 00:23:49;;;;;;;2.85;2.00;;;;;;;3.62;100.00;97784.94;1219457;75;3224975;-63
2024/03/14 00:26:23;;;;;;;3.10;2.30;;;;;;;3.69;100.00;97775.16;1223510;75;2933721;-63
2024/03/14 00:28:56;;;;;;;3.10;2.40;;;;;;;3.73;100.00;97782.00;1222716;75;2921490;-63
2024/03/14 00:31:32;;;;;;;3.35;2.15;;;;;;;3.80;100.00;97781.03;1224062;75;2919823;-64
2024/03/14 00:34:05;;;;;;;3.35;2.20;;;;;;;3.81;100.00;97788.72;1224175;75;2923285;-62
2024/03/14 00:36:38;;;;;;;2.60;1.90;;;;;;;3.87;100.00;97782.78;1223290;75;2918818;-65
2024/03/14 00:39:11;;;;;;;2.65;2.00;;;;;;;3.99;100.00;97782.84;1223302;75;2919369;-64
2024/03/14 00:41:44;;;;;;;2.45;1.90;;;;;;;3.92;100.00;97777.63;1224280;75;2921114;-65
2024/03/14 00:44:17;;;;;;;3.00;1.70;;;;;;;4.02;100.00;97773.88;1224355;75;2918429;-63
2024/03/14 00:46:52;;;;;;;1.55;1.35;;;;;;;4.07;100.00;97761.75;1224757;75;2922017;-65
2024/03/14 00:49:25;;;;;;;4.00;2.05;;;;;;;3.89;100.00;97764.16;1223671;75;2917545;-61
2024/03/14 00:51:58;;;;;;;3.80;2.80;;;;;;;3.77;100.00;97763.69;1225004;83;2923666;-62
2024/03/14 00:54:32;;;;;;;3.60;2.60;;;;;;;3.84;100.00;97758.09;1223914;75;2920318;-66
2024/03/14 00:57:06;;;;;;;3.30;2.45;;;;;;;3.97;100.00;97760.84;1223745;75;2925164;-65
2024/03/14 00:59:39;;;;;;;2.80;2.30;;;;;;;4.10;100.00;97755.47;1224818;75;2923007;-66
2024/03/14 01:02:15;;;;;;;2.90;1.90;;;;;;;4.16;100.00;97755.69;1223857;75;2922041;-64
2024/03/14 01:04:49;;;;;;;2.15;1.65;;;;;;;4.13;100.00;97749.19;1224015;75;2922737;-66
2024/03/14 01:07:23;;;;;;;2.30;1.65;;;;;;;3.97;100.00;97744.59;1223873;75;2919731;-63
2024/03/14 01:09:55;;;;;;;2.45;1.80;;;;;;;3.97;100.00;97746.53;1224035;75;2922030;-64
2024/03/14 01:12:28;;;;;;;3.00;2.10;;;;;;;4.10;100.00;97747.34;1224834;75;2921115;-65
2024/03/14 01:15:01;;;;;;;2.75;2.10;;;;;;;4.09;100.00;97740.41;1224313;75;2919745;-62
2024/03/14 01:17:38;;;;;;;2.35;2.10;;;;;;;4.23;100.00;97736.53;1224856;75;2923105;-64
2024/03/14 01:20:16;;;;;;;4.00;2.70;;;;;;;3.87;100.00;97732.09;1224479;75;2917769;-63
2024/03/14 01:22:48;;;;;;;7.90;3.80;;;;;;;3.71;100.00;97737.56;1225245;75;2924705;-64
2024/03/14 01:25:21;;;;;;;7.00;3.95;;;;;;;3.73;100.00;97718.94;1223997;75;2920136;-65
2024/03/14 01:27:55;;;;;;;5.55;3.20;;;;;;;3.74;100.00;97723.19;1224261;75;2922829;-62
2024/03/14 01:30:28;;;;;;;4.85;3.30;;;;;;;3.70;100.00;97720.56;1225101;75;2925238;-65
2024/03/14 01:33:03;;;;;;;5.75;3.60;;;;;;;3.69;100.00;97715.59;1224523;75;2918785;-64
2024/03/14 01:35:36;;;;;;;5.30;3.95;;;;;;;3.54;100.00;97726.78;1225132;75;2925521;-65
2024/03/14 01:38:09;;;;;;;4.15;3.30;;;;;;;3.83;100.00;97723.31;1224588;75;2918760;-64
2024/03/14 01:40:43;;;;;;;3.80;3.10;;;;;;;3.68;100.00;97717.53;1224146;75;2920626;-64
2024/03/14 01:43:16;;;;;;;3.70;2.60;;;;;;;3.81;100.00;97718.31;1224103;75;2932611;-65
2024/03/14 01:45:49;;;;;;;3.80;2.90;;;;;;;3.51;100.00;97718.75;1224464;75;2924425;-65
2024/03/14 01:48:24;;;;;;;4.05;2.90;;;;;;;3.66;100.00;97717.19;1223431;75;2927510;-65
2024/03/14 01:50:57;;;;;;;2.85;2.30;;;;;;;3.61;100.00;97715.03;1223592;75;2916984;-64
2024/03/14 01:53:30;;;;;;;3.35;2.20;;;;;;;3.58;100.00;97705.03;1224592;75;2927337;-65
2024/03/14 01:56:03;;;;;;;3.85;2.45;;;;;;;3.51;100.00;97710.63;1223812;75;2919504;-65
2024/03/14 01:58:36;;;;;;;3.40;2.70;;;;;;;3.43;100.00;97712.75;1224422;75;2920425;-63
2024/03/14 02:01:09;;;;;;;5.05;2.45;;;;;;;3.39;100.00;97703.97;1224802;75;2916810;-65
2024/03/14 02:03:51;;;;;;;3.55;2.70;;;;;;;3.31;100.00;97702.63;1223213;75;2928747;-64
2024/03/14 02:06:30;;;;;;;3.95;2.90;;;;;;;3.29;100.00;97689.53;1224138;75;2924728;-64
2024/03/14 02:09:03;;;;;;;4.25;2.90;;;;;;;3.47;100.00;97682.91;1224034;75;2921919;-66
2024/03/14 02:11:36;;;;;;;3.20;2.35;;;;;;;3.38;100.00;97686.22;1223887;75;2926389;-64
2024/03/14 02:14:10;;;;;;;3.20;2.50;;;;;;;3.37;100.00;97698.25;1224226;75;2919422;-63
2024/03/14 02:16:43;;;;;;;3.25;2.10;;;;;;;3.32;100.00;97704.94;1223149;75;2931950;-63
2024/03/14 02:19:19;;;;;;;3.55;2.45;;;;;;;3.13;100.00;97698.44;1224272;75;2922338;-65
2024/03/14 02:21:52;;;;;;;2.30;1.90;;;;;;;3.07;100.00;97700.13;1223014;75;2929782;-67
2024/03/14 02:24:27;;;;;;;2.75;2.25;;;;;;;2.91;100.00;97700.13;1223954;75;2932977;-64
2024/03/14 02:27:00;;;;;;;4.30;3.00;;;;;;;2.74;100.00;97700.16;1224570;75;2916519;-65
2024/03/14 02:29:33;;;;;;;4.00;3.00;;;;;;;2.80;100.00;97691.53;1223598;75;2929501;-65
2024/03/14 02:32:06;;;;;;;3.55;2.80;;;;;;;3.00;100.00;97694.88;1225050;75;2919065;-63
2024/03/14 02:34:39;;;;;;;2.85;2.30;;;;;;;2.82;100.00;97692.63;1224175;75;2935161;-65
2024/03/14 02:37:12;;;;;;;4.80;2.60;;;;;;;2.77;100.00;97691.19;1223700;75;2922570;-65
2024/03/14 02:39:47;;;;;;;2.55;2.20;;;;;;;2.86;100.00;97689.81;1224140;75;2919462;-64
2024/03/14 02:42:20;;;;;;;2.40;2.00;;;;;;;2.81;100.00;97693.78;1224700;75;2939733;-65
2024/03/14 02:44:54;;;;;;;3.45;2.10;;;;;;;2.76;100.00;97702.41;1223352;75;2924453;-67
2024/03/14 02:47:27;;;;;;;2.45;2.05;;;;;;;2.75;100.00;97698.19;1224440;75;2895054;-63
2024/03/14 02:50:00;;;;;;;2.75;2.20;;;;;;;2.78;100.00;97700.81;1224138;75;2936761;-65
2024/03/14 02:52:32;;;;;;;2.40;1.90;;;;;;;2.72;100.00;97691.69;1223392;75;2929141;-65
2024/03/14 02:55:10;;;;;;;3.35;2.30;;;;;;;2.75;100.00;97703.59;1223638;75;2923194;-64
2024/03/14 02:57:44;;;;;;;2.20;1.60;;;;;;;2.73;100.00;97705.97;1223587;75;2921438;-64
2024/03/14 03:00:18;;;;;;;2.35;1.80;;;;;;;2.77;100.00;97699.28;1224176;75;2914323;-63
2024/03/14 03:02:52;;;;;;;2.80;1.75;;;;;;;2.79;100.00;97698.88;1223647;75;2922678;-63
2024/03/14 03:05:25;;;;;;;2.95;2.05;;;;;;;2.61;100.00;97693.88;1223293;75;2936183;-65
2024/03/14 03:07:59;;;;;;;2.75;1.95;;;;;;;2.62;100.00;97689.22;1224227;75;2941719;-64
2024/03/14 03:10:34;;;;;;;2.05;1.80;;;;;;;2.81;100.00;97698.44;1223823;75;2926950;-63
2024/03/14 03:13:07;;;;;;;2.75;1.95;;;;;;;2.75;100.00;97692.78;1224700;75;2924440;-62
2024/03/14 03:15:41;;;;;;;2.50;1.90;;;;;;;2.81;100.00;97693.78;1224627;75;2923148;-65
2024/03/14 03:18:14;;;;;;;2.00;1.70;;;;;;;2.87;100.00;97686.72;1224051;75;2920796;-67
2024/03/14 03:20:47;;;;;;;2.90;2.05;;;;;;;2.73;100.00;97693.19;1224609;75;2917280;-64
2024/03/14 03:23:20;;;;;;;2.75;2.10;;;;;;;2.81;100.00;97682.22;1224616;75;2926967;-64
2024/03/14 03:25:53;;;;;;;3.30;1.75;;;;;;;2.94;100.00;97677.66;1222890;75;2928151;-64
2024/03/14 03:28:26;;;;;;;1.70;1.50;;;;;;;2.97;100.00;97687.63;1223083;75;2979197;-63
2024/03/14 03:30:56;;;;;;;2.00;1.70;;;;;;;2.91;100.00;97686.59;1223281;75;2912052;-65
2024/03/14 03:33:31;;;;;;;1.90;1.45;;;;;;;2.87;100.00;97684.00;1222668;75;2921079;-63
2024/03/14 03:36:04;;;;;;;1.75;1.40;;;;;;;2.91;100.00;97679.28;1223549;75;2924564;-65
2024/03/14 03:38:38;;;;;;;2.85;1.80;;;;;;;2.87;100.00;97686.72;1224245;75;2924232;-64
2024/03/14 03:41:13;;;;;;;2.15;1.70;;;;;;;2.73;100.00;97687.03;1224235;75;2923171;-63
2024/03/14 03:43:43;;;;;;;2.55;1.60;;;;;;;2.82;100.00;97692.63;1223989;75;2924133;-65
2024/03/14 03:46:16;;;;;;;1.45;1.30;;;;;;;2.77;100.00;97693.88;1224421;75;2918934;-64
2024/03/14 03:48:46;;;;;;;2.60;2.10;;;;;;;2.56;100.00;97691.69;1224642;75;2923550;-63
2024/03/14 03:51:20;;;;;;;2.60;2.15;;;;;;;2.70;100.00;97688.66;1224878;75;2915866;-64
2024/03/14 03:53:53;;;;;;;2.20;1.80;;;;;;;2.76;100.00;97697.75;1222946;75;2919852;-64
2024/03/14 03:56:25;;;;;;;2.30;1.80;;;;;;;2.63;100.00;97691.50;1223621;75;2926007;-67
2024/03/14 03:58:58;;;;;;;4.25;2.30;;;;;;;2.70;100.00;97694.06;1224263;75;2923081;-63
2024/03/14 04:01:28;;;;;;;3.20;2.35;;;;;;;2.81;100.00;97687.63;1223894;75;2928984;-62
2024/03/14 04:04:01;;;;;;;3.95;1.80;;;;;;;2.85;100.00;97675.56;1223374;75;2930700;-65
2024/03/14 04:06:35;;;;;;;2.70;2.10;;;;;;;3.02;100.00;97683.66;1224307;75;2919861;-64
2024/03/14 04:09:14;;;;;;;2.35;1.85;;;;;;;3.10;100.00;97679.59;1224404;75;2922130;-61
2024/03/14 04:11:50;;;;;;;4.40;2.70;;;;;;;3.13;100.00;97674.09;1223859;75;2932117;-65
2024/03/14 04:14:23;;;;;;;4.95;2.65;;;;;;;3.07;100.00;97678.50;1223966;75;2920461;-63
2024/03/14 04:16:56;;;;;;;9.60;5.35;;;;;;;2.99;100.00;97683.31;1223883;75;2915601;-64
2024/03/14 04:19:28;;;;;;;10.30;5.40;;;;;;;3.12;100.00;97685.34;1224855;75;2920844;-64
2024/03/14 04:22:01;;;;;;;9.05;4.70;;;;;;;3.23;100.00;97679.66;1223811;75;2918171;-63
2024/03/14 04:24:35;;;;;;;11.50;5.50;;;;;;;3.14;100.00;97685.66;1223406;75;2924978;-62
2024/03/14 04:27:10;;;;;;;21.65;7.60;;;;;;;2.99;100.00;97680.63;1224045;75;2924665;-64
2024/03/14 04:29:43;;;;;;;10.10;6.00;;;;;;;3.18;100.00;97678.22;1222660;75;2934566;-66
2024/03/14 04:32:17;;;;;;;9.15;5.95;;;;;;;2.93;100.00;97676.13;1223745;75;2915999;-65
2024/03/14 04:34:50;;;;;;;8.95;5.70;;;;;;;3.10;100.00;97685.78;1224671;75;2919790;-63
2024/03/14 04:37:23;;;;;;;7.70;4.70;;;;;;;3.20;100.00;97682.03;1223273;75;2921486;-63
2024/03/14 04:39:56;;;;;;;6.15;3.80;;;;;;;3.08;100.00;97688.13;1224232;75;2923185;-63
2024/03/14 04:42:33;;;;;;;5.65;3.50;;;;;;;3.02;100.00;97697.19;1224210;75;2927881;-63
2024/03/14 04:45:07;;;;;;;5.55;3.50;;;;;;;3.11;100.00;97706.22;1223872;75;2949893;-65
2024/03/14 04:47:40;;;;;;;5.45;3.25;;;;;;;3.14;100.00;97693.78;1224039;75;2924339;-67
2024/03/14 04:50:13;;;;;;;5.05;3.20;;;;;;;3.11;100.00;97697.34;1223562;75;2949476;-65
2024/03/14 04:52:46;;;;;;;5.10;3.90;;;;;;;3.01;100.00;97695.66;1224049;75;2946033;-62
2024/03/14 04:55:20;;;;;;;5.40;3.20;;;;;;;3.17;100.00;97696.38;1224773;75;2940837;-65
2024/03/14 04:57:55;;;;;;;3.70;2.65;;;;;;;3.13;100.00;97697.69;1224273;75;2928598;-64
2024/03/14 05:00:29;;;;;;;8.35;3.00;;;;;;;3.06;100.00;97693.22;1223898;75;2926460;-66
2024/03/14 05:03:04;;;;;;;4.50;3.00;;;;;;;3.17;100.00;97690.97;1223861;75;2929032;-64
2024/03/14 05:05:36;;;;;;;3.60;2.20;;;;;;;3.32;100.00;97694.09;1223615;75;2934403;-62
2024/03/14 05:08:10;;;;;;;4.35;2.60;;;;;;;3.15;100.00;97698.00;1216318;75;2921308;-63
2024/03/14 05:10:43;;;;;;;4.70;3.00;;;;;;;3.07;100.00;97696.66;1221271;75;2927975;-64
2024/03/14 05:13:19;;;;;;;4.20;2.85;;;;;;;3.14;100.00;97696.50;1223603;75;2919428;-63
2024/03/14 05:15:52;;;;;;;5.70;3.70;;;;;;;3.14;100.00;97688.38;1223082;75;2926753;-62
2024/03/14 05:18:25;;;;;;;6.25;3.65;;;;;;;3.29;100.00;97689.53;1223202;75;2926988;-64
2024/03/14 05:20:58;;;;;;;4.15;2.65;;;;;;;3.47;100.00;97699.16;1224366;75;2922954;-64
2024/03/14 05:23:31;;;;;;;3.80;2.50;;;;;;;3.50;100.00;97695.59;1223730;75;2922689;-63
2024/03/14 05:26:04;;;;;;;3.85;2.55;;;;;;;3.48;100.00;97687.13;1223272;75;2932867;-62
2024/03/14 05:28:39;;;;;;;5.10;3.60;;;;;;;3.39;100.00;97690.44;1222573;75;2919064;-65
2024/03/14 05:31:12;;;;;;;3.55;2.20;;;;;;;3.59;100.00;97698.44;1223090;75;2925302;-64
2024/03/14 05:33:45;;;;;;;3.45;2.40;;;;;;;3.52;100.00;97709.44;1223944;75;2925567;-66
2024/03/14 05:36:18;;;;;;;4.85;3.55;;;;;;;3.53;100.00;97710.97;1221272;75;2922477;-65
2024/03/14 05:38:50;;;;;;;5.05;3.50;;;;;;;3.66;100.00;97722.63;1224163;75;2934434;-66
2024/03/14 05:41:24;;;;;;;7.00;4.95;;;;;;;3.45;100.00;97715.06;1223897;75;2928257;-66
2024/03/14 05:43:59;;;;;;;6.10;4.25;;;;;;;3.60;100.00;97714.22;1224030;75;2916070;-60
2024/03/14 05:46:32;;;;;;;5.25;3.80;;;;;;;3.63;100.00;97726.94;1223355;75;2925058;-66
2024/03/14 05:49:06;;;;;;;4.80;3.55;;;;;;;3.78;100.00;97723.84;1224022;75;2923153;-63
2024/03/14 05:51:39;;;;;;;3.95;2.75;;;;;;;3.82;100.00;97716.38;1224372;75;2935954;-66
2024/03/14 05:54:12;;;;;;;4.45;3.35;;;;;;;3.81;100.00;97714.88;1223233;75;2926794;-64
2024/03/14 05:56:45;;;;;;;4.65;3.50;;;;;;;3.90;100.00;97712.28;1223824;75;2924267;-64
2024/03/14 05:59:21;;;;;;;6.05;3.60;;;;;;;3.99;100.00;97711.66;1224272;75;2927951;-64
2024/03/14 06:01:54;;;;;;;6.05;3.60;;;;;;;4.00;100.00;97708.53;1223201;75;2915638;-65
2024/03/14 06:04:27;;;;;;;5.85;3.55;;;;;;;4.18;100.00;97707.25;1224993;75;2919125;-61
2024/03/14 06:07:00;;;;;;;5.80;3.60;;;;;;;4.22;100.00;97708.66;1224746;75;2924778;-64
2024/03/14 06:09:41;;;;;;;3.90;3.30;;;;;;;4.36;100.00;97704.03;1224143;75;2921794;-65
2024/03/14 06:12:14;;;;;;;4.85;2.90;;;;;;;4.53;100.00;97710.88;1217463;75;3157537;-65
2024/03/14 06:14:49;;;;;;;3.55;2.65;;;;;;;4.66;100.00;97717.03;1224270;75;2916923;-65
2024/03/14 06:17:22;;;;;;;5.85;3.30;;;;;;;4.57;100.00;97716.94;1222826;75;2934779;-66
2024/03/14 06:19:57;;;;;;;7.55;3.55;;;;;;;4.65;100.00;97723.66;1223372;75;2929566;-66
2024/03/14 06:22:30;;;;;;;3.80;2.65;;;;;;;4.84;100.00;97729.31;1224513;75;2901715;-64
2024/03/14 06:25:02;;;;;;;5.95;4.10;;;;;;;4.80;100.00;97731.38;1223131;75;2927986;-63
2024/03/14 06:27:35;;;;;;;5.60;3.70;;;;;;;4.74;100.00;97728.44;1223146;75;2917629;-64
2024/03/14 06:30:15;;;;;;;4.85;3.45;;;;;;;5.03;100.00;97725.59;1223493;75;2948917;-66
2024/03/14 06:32:49;;;;;;;7.25;5.05;;;;;;;4.80;100.00;97732.13;1223011;75;2920601;-64
2024/03/14 06:35:23;;;;;;;7.05;5.00;;;;;;;4.90;100.00;97733.72;1223544;75;2930220;-65
2024/03/14 06:37:59;;;;;;;6.15;4.10;;;;;;;5.12;100.00;97733.84;1222996;75;2926799;-63
2024/03/14 06:40:32;;;;;;;6.25;4.15;;;;;;;5.21;100.00;97726.97;1223123;75;2934627;-65
2024/03/14 06:43:06;;;;;;;5.35;4.05;;;;;;;5.47;100.00;97728.44;1223142;75;2924714;-65
2024/03/14 06:45:42;;;;;;;7.25;4.20;;;;;;;5.48;100.00;97726.47;1223836;75;2936536;-63
2024/03/14 06:48:15;;;;;;;5.20;3.55;;;;;;;5.70;100.00;97729.22;1223510;75;2924107;-64
2024/03/14 06:50:48;;;;;;;5.25;3.50;;;;;;;5.92;100.00;97724.56;1223481;75;2929414;-65
2024/03/14 06:53:21;;;;;;;7.40;4.40;;;;;;;5.78;100.00;97725.06;1223754;75;2924449;-64
2024/03/14 06:55:54;;;;;;;11.45;6.60;;;;;;;5.69;100.00;97725.75;1223490;75;2945515;-68
2024/03/14 06:58:27;;;;;;;7.85;5.50;;;;;;;6.00;100.00;97729.78;1223430;75;2921993;-64
2024/03/14 07:01:02;;;;;;;9.00;5.70;;;;;;;6.37;100.00;97730.72;1224243;67;2920195;-63
2024/03/14 07:03:37;;;;;;;6.60;4.20;;;;;;;6.54;100.00;97734.00;1223553;75;2925823;-64
2024/03/14 07:06:12;;;;;;;6.15;4.50;;;;;;;6.68;100.00;97733.44;1224047;75;2928562;-64
2024/03/14 07:08:46;;;;;;;7.25;4.35;;;;;;;7.09;100.00;97736.16;1223555;75;2924082;-64
2024/03/14 07:11:19;;;;;;;4.50;3.70;;;;;;;7.20;100.00;97739.22;1223983;75;2921775;-64
2024/03/14 07:13:54;;;;;;;4.60;3.10;;;;;;;7.51;96.65;97744.56;1223640;75;2939943;-63
2024/03/14 07:16:29;;;;;;;3.90;2.45;;;;;;;7.98;95.61;97743.34;1222493;75;2882808;-67
2024/03/14 07:19:06;;;;;;;3.45;2.55;;;;;;;8.32;92.36;97749.66;1218734;75;3192627;-64
2024/03/14 07:21:39;;;;;;;3.35;2.45;;;;;;;8.44;88.89;97748.00;1223706;75;2921121;-65
2024/03/14 07:24:12;;;;;;;4.75;3.05;;;;;;;8.33;89.53;97738.28;1223120;75;2951540;-67
2024/03/14 07:26:46;;;;;;;9.20;4.35;;;;;;;8.43;89.24;97741.78;1223337;75;2926888;-65
2024/03/14 07:29:19;;;;;;;9.80;4.95;;;;;;;8.09;88.47;97753.78;1176162;75;6466722;-65
2024/03/14 07:31:55;;;;;;;7.35;4.50;;;;;;;8.27;89.80;97753.78;1220519;75;2934535;-64
2024/03/14 07:34:29;;;;;;;7.25;4.30;;;;;;;8.37;90.74;97759.97;1215484;75;3366296;-62
2024/03/14 07:37:01;;;;;;;8.00;4.05;;;;;;;8.30;88.64;97765.75;1223218;75;2931857;-63
2024/03/14 07:39:34;;;;;;;5.70;3.85;;;;;;;8.78;87.48;97762.44;1223173;75;2920136;-66
2024/03/14 07:42:07;;;;;;;6.00;3.75;;;;;;;8.77;85.22;97769.13;1223302;75;2919536;-65
2024/03/14 07:44:45;;;;;;;6.15;4.20;;;;;;;8.38;88.79;97761.47;1223536;75;2921651;-66
2024/03/14 07:47:25;;;;;;;5.70;3.80;;;;;;;8.77;85.10;97769.13;1223823;75;2919309;-65
2024/03/14 07:49:58;;;;;;;6.60;4.35;;;;;;;8.61;86.46;97771.00;1224315;75;2922577;-64
2024/03/14 07:52:32;;;;;;;9.10;4.60;;;;;;;8.23;89.21;97779.69;1187219;75;5742242;-64
2024/03/14 07:55:06;;;;;;;6.35;3.95;;;;;;;8.78;88.01;97781.53;1223790;75;2922690;-67
2024/03/14 07:57:39;;;;;;;11.70;4.95;;;;;;;8.25;90.03;97775.28;1223820;75;2920372;-67
2024/03/14 08:00:15;;;;;;;7.95;4.90;;;;;;;8.45;88.63;97769.38;1221509;75;2925452;-64
2024/03/14 08:02:54;;;;;;;7.80;5.00;;;;;;;8.89;87.14;97771.66;1223488;75;2928774;-67
2024/03/14 08:05:31;;;;;;;6.10;3.90;;;;;;;9.22;85.30;97764.69;1223785;75;2922405;-67
2024/03/14 08:08:05;;;;;;;10.25;5.30;;;;;;;8.82;86.90;97776.69;1223544;75;2927872;-67
2024/03/14 08:10:39;;;;;;;6.90;4.55;;;;;;;9.20;88.27;97772.59;1223311;75;2918207;-66
2024/03/14 08:13:17;;;;;;;8.15;4.80;;;;;;;8.88;88.39;97769.41;1223561;75;2937493;-65
2024/03/14 08:15:59;;;;;;;6.90;4.80;;;;;;;9.19;87.00;97777.28;1224462;75;2921829;-65
2024/03/14 08:18:35;;;;;;;7.05;4.70;;;;;;;9.55;83.81;97773.59;1221809;75;2930574;-68
2024/03/14 08:21:12;;;;;;;6.45;4.70;;;;;;;9.96;82.51;97784.84;1222918;75;2923166;-65
2024/03/14 08:23:47;;;;;;;7.85;4.50;;;;;;;10.12;79.89;97780.88;1223155;75;2928577;-67
2024/03/14 08:26:20;;;;;;;7.40;4.55;;;;;;;10.06;78.59;97776.56;1224177;75;2923963;-66
2024/03/14 08:28:54;;;;;;;7.00;4.95;;;;;;;10.40;77.44;97786.16;1223231;75;2928604;-66
2024/03/14 08:31:27;;;;;;;4.45;3.20;;;;;;;10.90;75.81;97780.75;1222308;75;2930693;-66
2024/03/14 08:34:05;;;;;;;4.80;3.45;;;;;;;11.12;75.14;97782.31;1223842;75;2917870;-66
2024/03/14 08:36:43;;;;;;;5.10;3.70;;;;;;;11.53;72.33;97785.88;1223980;75;2922432;-65
2024/03/14 08:39:17;;;;;;;3.90;2.60;;;;;;;11.58;70.73;97781.69;1224700;75;2920363;-66
2024/03/14 08:41:50;;;;;;;4.65;3.10;;;;;;;11.89;68.48;97789.34;1223960;75;2924698;-66
2024/03/14 08:44:26;;;;;;;4.60;3.20;;;;;;;11.90;67.44;97788.09;1223898;75;2924772;-67
2024/03/14 08:47:00;;;;;;;6.25;3.65;;;;;;;11.95;66.91;97787.38;1223003;75;2923168;-65
2024/03/14 08:49:35;;;;;;;6.95;3.40;;;;;;;12.29;66.09;97788.53;1222888;75;2902288;-67
2024/03/14 08:52:09;;;;;;;7.75;3.20;;;;;;;12.42;65.96;97777.16;1221278;75;2918251;-68
2024/03/14 08:54:45;;;;;;;4.15;2.60;;;;;;;12.44;65.42;97771.19;1223720;75;2883717;-69
2024/03/14 08:57:18;;;;;;;4.45;2.80;;;;;;;12.61;65.76;97782.31;1222688;75;2919100;-67
2024/03/14 08:59:51;;;;;;;3.35;2.60;;;;;;;12.64;65.22;97773.84;1224079;75;2919284;-66
2024/03/14 09:02:27;;;;;;;4.20;3.00;;;;;;;12.88;63.63;97772.78;1222252;75;2936959;-68
2024/03/14 09:05:05;;;;;;;4.65;2.75;;;;;;;12.91;64.41;97769.06;1223488;75;2930390;-64
2024/03/14 09:07:40;;;;;;;5.40;3.00;;;;;;;13.43;62.84;97777.16;1223517;75;2922568;-66
2024/03/14 09:10:23;;;;;;;4.50;3.00;;;;;;;14.01;61.28;97782.41;1222614;75;2923978;-65
2024/03/14 09:12:58;;;;;;;6.45;3.30;;;;;;;14.36;59.69;97778.47;1223986;75;2921009;-66
2024/03/14 09:15:31;;;;;;;4.10;2.95;;;;;;;14.44;59.71;97785.75;1222867;75;2931232;-66
2024/03/14 09:18:06;;;;;;;4.25;2.85;;;;;;;14.31;58.39;97780.00;1223916;75;2927051;-66
2024/03/14 09:20:43;;;;;;;5.40;3.75;;;;;;;14.28;59.51;97772.72;1223142;75;2923359;-65
2024/03/14 09:23:19;;;;;;;4.70;3.20;;;;;;;14.22;58.97;97775.47;1224049;75;2919663;-68
2024/03/14 09:25:52;;;;;;;5.10;3.30;;;;;;;13.40;61.52;97773.41;1220536;75;2978494;-66
2024/03/14 09:28:25;;;;;;;4.60;3.50;;;;;;;13.84;61.22;97772.09;1223861;75;2920800;-65
2024/03/14 09:31:00;;;;;;;5.85;3.50;;;;;;;13.99;60.55;97769.13;1221471;75;2983499;-63
2024/03/14 09:33:33;;;;;;;5.45;3.15;;;;;;;14.03;59.62;97771.66;1222574;75;2923813;-67
2024/03/14 09:36:13;;;;;;;4.75;2.80;;;;;;;14.22;59.11;97774.72;1223484;75;2938497;-65
2024/03/14 09:38:46;;;;;;;5.15;3.40;;;;;;;14.50;59.13;97771.97;1220151;75;2918130;-67
2024/03/14 09:41:22;;;;;;;3.80;2.70;;;;;;;14.64;58.46;97768.25;1219869;75;3032926;-67
2024/03/14 09:43:55;;;;;;;2.35;2.00;;;;;;;15.17;56.75;97762.97;1222305;75;2929606;-66
2024/03/14 09:46:30;;;;;;;3.90;2.05;;;;;;;15.50;57.49;97766.91;1223555;75;2925923;-67
2024/03/14 09:49:04;;;;;;;3.35;2.20;;;;;;;15.64;56.83;97765.84;1222627;75;2927798;-68
2024/03/14 09:51:39;;;;;;;6.00;3.75;;;;;;;14.26;58.41;97758.69;1221251;75;2943033;-66
2024/03/14 09:54:12;;;;;;;5.85;4.00;;;;;;;13.58;60.85;97761.22;1222793;75;2923568;-66
2024/03/14 09:56:45;;;;;;;5.70;3.70;;;;;;;13.93;61.54;97751.88;1222817;75;2946308;-66
2024/03/14 09:59:18;;;;;;;3.80;2.70;;;;;;;14.88;59.05;97753.97;1223318;75;2929808;-67
2024/03/14 10:01:51;;;;;;;5.95;3.10;;;;;;;14.61;57.40;97747.22;1222560;75;2932948;-65
2024/03/14 10:04:24;;;;;;;3.70;2.50;;;;;;;15.16;57.21;97744.94;1193676;75;5211154;-65
2024/03/14 10:07:00;;;;;;;4.60;2.85;;;;;;;15.06;58.02;97749.97;1222636;75;2924810;-69
2024/03/14 10:09:34;;;;;;;4.95;3.50;;;;;;;14.56;58.39;97744.50;1223532;75;2928862;-65
2024/03/14 10:12:12;;;;;;;4.80;2.55;;;;;;;15.53;56.93;97744.56;1223498;75;2916070;-66
2024/03/14 10:14:46;;;;;;;6.05;2.95;;;;;;;15.31;57.92;97747.41;1222838;75;2930021;-65
2024/03/14 10:17:19;;;;;;;3.15;2.55;;;;;;;16.08;56.29;97746.84;1223625;75;2920866;-67
2024/03/14 10:19:52;;;;;;;5.25;2.70;;;;;;;16.07;57.13;97748.88;1223215;75;2924021;-66
2024/03/14 10:22:30;;;;;;;3.05;2.10;;;;;;;16.02;54.29;97735.84;1223572;75;2938478;-66
2024/03/14 10:25:04;;;;;;;3.00;2.00;;;;;;;17.00;53.20;97736.13;1221845;75;2942772;-65
2024/03/14 10:27:44;;;;;;;4.05;2.20;;;;;;;16.57;53.35;97733.97;1224261;75;2919086;-67
2024/03/14 10:30:18;;;;;;;3.40;2.50;;;;;;;16.13;54.56;97729.50;1224053;75;2921927;-65
2024/03/14 10:32:54;;;;;;;3.70;2.50;;;;;;;16.68;53.86;97726.84;1223799;75;2925532;-66
2024/03/14 10:35:30;;;;;;;3.40;2.25;;;;;;;16.48;53.62;97728.75;1223093;75;2919872;-65
2024/03/14 10:38:11;;;;;;;3.60;2.65;;;;;;;16.98;54.01;97726.84;1223646;75;2923328;-66
2024/03/14 10:40:45;;;;;;;3.60;2.10;;;;;;;18.15;51.22;97721.19;1223379;75;2927313;-66
2024/03/14 10:43:19;;;;;;;3.90;2.70;;;;;;;16.12;52.12;97722.50;1223345;75;2921726;-67
2024/03/14 10:45:55;;;;;;;3.55;2.35;;;;;;;16.71;52.61;97726.56;1222818;75;2923628;-66
2024/03/14 10:48:28;;;;;;;3.80;2.60;;;;;;;17.35;51.28;97723.44;1223675;75;2919777;-68
2024/03/14 10:51:02;;;;;;;3.35;2.40;;;;;;;17.90;50.10;97714.25;1223705;75;2922123;-66
2024/03/14 10:53:40;;;;;;;4.40;3.05;;;;;;;14.95;54.69;97722.41;1224074;75;2920674;-65
2024/03/14 10:56:20;;;;;;;4.70;3.30;;;;;;;15.33;54.79;97718.06;1224035;75;2926528;-64
2024/03/14 10:58:56;;;;;;;3.80;2.50;;;;;;;15.32;56.15;97711.03;1222754;75;2921261;-67
2024/03/14 11:01:29;;;;;;;3.45;2.35;;;;;;;18.13;52.14;97701.56;1224142;75;2924993;-65
2024/03/14 11:04:03;;;;;;;3.65;2.20;;;;;;;18.31;49.18;97700.78;1224302;75;2927992;-67
2024/03/14 11:06:40;;;;;;;2.25;1.50;;;;;;;18.69;48.28;97703.47;1224595;75;2939920;-67
2024/03/14 11:09:17;;;;;;;4.25;2.15;;;;;;;19.85;46.20;97691.97;1224770;75;2925343;-66
2024/03/14 11:11:57;;;;;;;3.65;2.00;;;;;;;20.32;44.53;97691.13;1224711;75;2926098;-66
2024/03/14 11:14:39;;;;;;;4.05;1.85;;;;;;;20.73;43.78;97697.25;1224743;75;2920975;-65
2024/03/14 11:17:14;;;;;;;3.10;2.15;;;;;;;19.87;44.63;97688.66;1224923;75;2925818;-66
2024/03/14 11:19:54;;;;;;;3.35;2.00;;;;;;;20.35;44.10;97692.09;1224160;75;2922986;-66
2024/03/14 11:22:30;;;;;;;2.55;1.80;;;;;;;19.67;45.16;97682.44;1224431;75;2917293;-69
2024/03/14 11:25:08;;;;;;;3.10;2.05;;;;;;;18.33;47.14;97680.09;1224402;75;2935242;-68
2024/03/14 11:27:41;;;;;;;2.80;1.90;;;;;;;19.49;46.03;97677.81;1224433;75;2923750;-68
2024/03/14 11:30:19;;;;;;;2.75;1.80;;;;;;;18.64;46.92;97671.03;1222444;75;2938346;-65
2024/03/14 11:32:56;;;;;;;2.90;2.00;;;;;;;18.24;48.38;97670.94;1223108;75;2924916;-65
2024/03/14 11:35:43;;;;;;;2.10;1.70;;;;;;;18.35;47.53;97681.09;1224188;75;2920637;-66
2024/03/14 11:38:32;;;;;;;3.00;2.10;;;;;;;18.14;47.80;97669.84;1223387;75;2948040;-67
2024/03/14 11:41:13;;;;;;;3.70;2.35;;;;;;;17.84;49.59;97672.78;1223389;75;2923414;-65
2024/03/14 11:43:47;;;;;;;3.15;2.00;;;;;;;17.25;50.46;97678.03;1222513;75;2917496;-65
2024/03/14 11:46:21;;;;;;;2.50;2.10;;;;;;;17.62;49.09;97666.25;1222821;75;2922638;-66
2024/03/14 11:48:56;;;;;;;3.75;2.10;;;;;;;18.00;48.29;97666.25;1183754;75;3470411;-69